Terminal Aerodrome Forecast
Issued by NWS Charleston, WV

Current Version | Previous Version | Text Only | Print | Product List | Glossary Off
Versions: 1 2 3 4 5 6 7 8 9 10 11 12 13 14 15 16 17 18 19 20 21 22 23 24 25 26 27 28 29 30 31 32 33

000
FTUS41 KRLX 292200 AAA
TAFCRW
TAF AMD
KCRW 292201Z 2922/3018 30010KT P6SM BKN035
     FM292300 VRB03KT P6SM SCT035
     FM300500 00000KT 4SM BR BKN050
     FM300800 00000KT 1SM BR BKN001
     FM300900 00000KT 1/4SM FG OVC001
     FM301300 00000KT 2SM BR BKN003 BKN008
     FM301400 24003KT 5SM BR HZ SCT008 BKN015
     FM301500 26005KT P6SM BKN015
     FM301700 27005KT P6SM BKN025=

USA.gov is the U.S. government's official web portal to all federal, state and local government web resources and services.